createdAt,value
2018-12-08T00:00:34.252Z,2.10
2018-12-08T00:03:01.739Z,1.80
2018-12-08T00:05:29.268Z,1.50
2018-12-08T00:07:56.825Z,1.30
2018-12-08T00:10:24.300Z,1.30
2018-12-08T00:12:51.804Z,1.20
2018-12-08T00:15:19.307Z,1.20
2018-12-08T00:17:46.820Z,1.30
2018-12-08T00:20:14.299Z,1.40
2018-12-08T00:22:41.784Z,1.40
2018-12-08T00:25:10.692Z,1.50
2018-12-08T00:27:38.183Z,1.60
2018-12-08T00:33:12.388Z,1.70
2018-12-08T00:35:39.888Z,1.70
2018-12-08T00:38:07.334Z,1.70
2018-12-08T00:40:35.734Z,1.80
2018-12-08T00:43:03.417Z,1.90
2018-12-08T00:45:30.877Z,1.90
2018-12-08T00:47:58.429Z,2.00
2018-12-08T00:50:25.944Z,2.00
2018-12-08T00:52:53.428Z,2.10
2018-12-08T00:55:20.913Z,2.20
2018-12-08T00:57:48.393Z,2.20
2018-12-08T01:00:15.881Z,2.20
2018-12-08T01:02:43.380Z,2.30
2018-12-08T01:05:10.891Z,2.30
2018-12-08T01:07:38.412Z,2.30
2018-12-08T01:10:06.110Z,2.40
2018-12-08T01:12:33.601Z,2.40
2018-12-08T01:15:01.086Z,2.40
2018-12-08T01:17:28.615Z,2.40
2018-12-08T01:19:56.075Z,2.40
2018-12-08T01:22:23.549Z,2.40
2018-12-08T01:24:50.988Z,2.50
2018-12-08T01:27:18.475Z,2.50
2018-12-08T01:29:45.966Z,2.50
2018-12-08T01:32:13.447Z,2.50
2018-12-08T01:34:40.954Z,2.50
2018-12-08T01:37:08.432Z,2.50
2018-12-08T01:39:35.950Z,2.40
2018-12-08T01:42:03.461Z,2.40
2018-12-08T01:44:30.995Z,2.40
2018-12-08T01:46:58.476Z,2.40
2018-12-08T01:49:25.956Z,2.40
2018-12-08T01:51:53.421Z,2.30
2018-12-08T01:54:20.938Z,2.30
2018-12-08T01:56:48.451Z,2.40
2018-12-08T01:59:15.922Z,2.40
2018-12-08T02:01:43.371Z,2.40
2018-12-08T02:04:10.858Z,2.40
2018-12-08T02:06:38.329Z,2.40
2018-12-08T02:09:07.739Z,2.30
2018-12-08T02:11:35.446Z,2.40
2018-12-08T02:14:02.956Z,2.30
2018-12-08T02:16:30.424Z,2.20
2018-12-08T02:18:57.894Z,2.10
2018-12-08T02:21:25.368Z,2.10
2018-12-08T02:23:52.838Z,2.00
2018-12-08T02:26:20.310Z,2.00
2018-12-08T02:28:47.786Z,1.90
2018-12-08T02:31:15.284Z,1.90
2018-12-08T02:33:42.730Z,2.00
2018-12-08T02:36:10.190Z,2.00
2018-12-08T02:38:37.657Z,2.00
2018-12-08T02:41:05.133Z,1.90
2018-12-08T02:43:32.684Z,1.90
2018-12-08T02:46:00.151Z,1.90
2018-12-08T02:48:27.616Z,2.00
2018-12-08T02:50:55.184Z,2.10
2018-12-08T02:53:22.735Z,2.10
2018-12-08T02:55:50.194Z,2.10
2018-12-08T02:58:17.682Z,2.20
2018-12-08T03:00:45.162Z,2.20
2018-12-08T03:03:12.607Z,2.20
2018-12-08T03:05:40.065Z,2.20
2018-12-08T03:08:07.537Z,2.20
2018-12-08T03:10:35.019Z,2.30
2018-12-08T03:13:02.489Z,2.30
2018-12-08T03:15:29.981Z,2.30
2018-12-08T03:17:57.461Z,2.30
2018-12-08T03:20:24.933Z,2.30
2018-12-08T03:22:52.394Z,2.30
2018-12-08T03:25:19.872Z,2.30
2018-12-08T03:27:47.347Z,2.30
2018-12-08T03:30:14.857Z,2.30
2018-12-08T03:32:42.415Z,2.40
2018-12-08T03:35:09.935Z,2.40
2018-12-08T03:37:37.428Z,2.50
2018-12-08T03:40:04.926Z,2.50
2018-12-08T03:42:32.506Z,2.60
2018-12-08T03:45:00.235Z,2.60
2018-12-08T03:47:27.697Z,2.60
2018-12-08T03:49:55.152Z,2.60
2018-12-08T03:52:22.638Z,2.50
2018-12-08T03:54:50.112Z,2.60
2018-12-08T03:57:17.587Z,2.50
2018-12-08T03:59:45.063Z,2.60
2018-12-08T04:02:12.540Z,2.50
2018-12-08T04:04:39.990Z,2.40
2018-12-08T04:07:07.477Z,2.40
2018-12-08T04:09:34.920Z,2.50
2018-12-08T04:12:02.447Z,2.50
2018-12-08T04:14:29.997Z,2.50
2018-12-08T04:16:57.493Z,2.60
2018-12-08T04:19:24.994Z,2.60
2018-12-08T04:21:52.466Z,2.60
2018-12-08T04:24:19.942Z,2.70
2018-12-08T04:26:47.460Z,2.70
2018-12-08T04:29:14.915Z,2.70
2018-12-08T04:31:42.400Z,2.70
2018-12-08T04:34:09.888Z,2.60
2018-12-08T04:36:37.324Z,2.70
2018-12-08T04:39:06.065Z,2.60
2018-12-08T04:41:33.580Z,2.60
2018-12-08T04:44:01.039Z,2.50
2018-12-08T04:46:28.587Z,2.50
2018-12-08T04:48:56.755Z,2.50
2018-12-08T04:51:24.230Z,2.50
2018-12-08T04:53:51.686Z,2.40
2018-12-08T04:56:19.220Z,2.50
2018-12-08T04:58:46.729Z,2.40
2018-12-08T05:01:14.229Z,2.40
2018-12-08T05:03:41.698Z,2.40
2018-12-08T05:06:09.213Z,2.40
2018-12-08T05:08:36.693Z,2.40
2018-12-08T05:11:04.219Z,2.40
2018-12-08T05:13:31.683Z,2.40
2018-12-08T05:15:59.136Z,2.50
2018-12-08T05:18:26.600Z,2.50
2018-12-08T05:20:54.066Z,2.50
2018-12-08T05:23:21.538Z,2.50
2018-12-08T05:25:49.020Z,2.50
2018-12-08T05:28:16.496Z,2.50
2018-12-08T05:30:43.963Z,2.60
2018-12-08T05:33:11.455Z,2.60
2018-12-08T05:35:38.950Z,2.50
2018-12-08T05:38:06.629Z,2.50
2018-12-08T05:40:34.085Z,2.50
2018-12-08T05:43:01.557Z,2.50
2018-12-08T05:45:29.063Z,2.50
2018-12-08T05:47:56.578Z,2.50
2018-12-08T05:50:24.077Z,2.50
2018-12-08T05:52:51.534Z,2.50
2018-12-08T05:55:19.005Z,2.50
2018-12-08T05:57:47.108Z,2.50
2018-12-08T06:00:14.687Z,2.40
2018-12-08T06:02:42.199Z,2.40
2018-12-08T06:05:09.692Z,2.40
2018-12-08T06:07:37.150Z,2.40
2018-12-08T06:10:05.227Z,2.30
2018-12-08T06:12:32.734Z,2.30
2018-12-08T06:15:00.329Z,2.30
2018-12-08T06:17:27.813Z,2.30
2018-12-08T06:19:55.308Z,2.20
2018-12-08T06:22:23.697Z,2.20
2018-12-08T06:24:51.180Z,2.20
2018-12-08T06:27:18.693Z,2.10
2018-12-08T06:29:46.175Z,2.20
2018-12-08T06:32:13.698Z,2.20
2018-12-08T06:34:41.176Z,2.20
2018-12-08T06:37:08.656Z,2.20
2018-12-08T06:39:36.190Z,2.20
2018-12-08T06:42:03.673Z,2.30
2018-12-08T06:44:31.207Z,2.30
2018-12-08T06:46:58.908Z,2.30
2018-12-08T06:49:26.473Z,2.40
2018-12-08T06:51:54.005Z,2.40
2018-12-08T06:54:21.456Z,2.40
2018-12-08T06:56:48.966Z,2.40
2018-12-08T06:59:16.435Z,2.40
2018-12-08T07:01:43.966Z,2.40
2018-12-08T07:04:11.457Z,2.50
2018-12-08T07:06:38.989Z,2.50
2018-12-08T07:09:06.473Z,2.50
2018-12-08T07:11:34.014Z,2.60
2018-12-08T07:14:01.488Z,2.60
2018-12-08T07:16:29.838Z,2.50
2018-12-08T07:18:57.299Z,2.50
2018-12-08T07:21:24.801Z,2.50
2018-12-08T07:23:52.308Z,2.50
2018-12-08T07:26:20.202Z,2.60
2018-12-08T07:28:47.688Z,2.60
2018-12-08T07:31:15.174Z,2.60
2018-12-08T07:33:42.648Z,2.70
2018-12-08T07:36:10.127Z,2.70
2018-12-08T07:38:37.701Z,2.70
2018-12-08T07:41:05.257Z,2.70
2018-12-08T07:43:32.712Z,2.70
2018-12-08T07:46:00.188Z,2.70
2018-12-08T07:48:27.661Z,2.70
2018-12-08T07:50:55.118Z,2.70
2018-12-08T07:53:22.652Z,2.70
2018-12-08T07:55:50.141Z,2.80
2018-12-08T07:58:17.654Z,2.80
2018-12-08T08:00:45.141Z,2.80
2018-12-08T08:03:12.616Z,2.80
2018-12-08T08:05:40.349Z,2.80
2018-12-08T08:08:07.854Z,2.80
2018-12-08T08:10:35.304Z,2.80
2018-12-08T08:13:02.797Z,2.80
2018-12-08T08:15:30.275Z,2.70
2018-12-08T08:17:57.730Z,2.70
2018-12-08T08:20:25.187Z,2.70
2018-12-08T08:22:52.671Z,2.70
2018-12-08T08:25:20.144Z,2.70
2018-12-08T08:27:47.612Z,2.80
2018-12-08T08:30:15.075Z,2.70
2018-12-08T08:32:42.622Z,2.80
2018-12-08T08:35:10.167Z,2.90
2018-12-08T08:37:37.742Z,2.90
2018-12-08T08:40:08.185Z,2.80
2018-12-08T08:42:35.628Z,2.90
2018-12-08T08:45:03.840Z,2.90
2018-12-08T08:47:31.296Z,3.00
2018-12-08T08:49:58.773Z,3.00
2018-12-08T08:52:26.267Z,3.00
2018-12-08T08:54:53.735Z,3.00
2018-12-08T08:57:21.249Z,3.00
2018-12-08T08:59:48.710Z,3.00
2018-12-08T09:02:16.190Z,3.00
2018-12-08T09:04:43.668Z,3.10
2018-12-08T09:07:11.135Z,3.10
2018-12-08T09:09:38.615Z,3.10
2018-12-08T09:12:06.123Z,3.10
2018-12-08T09:14:33.634Z,3.20
2018-12-08T09:17:01.142Z,3.20
2018-12-08T09:19:28.614Z,3.10
2018-12-08T09:21:57.490Z,3.20
2018-12-08T09:24:25.095Z,3.20
2018-12-08T09:26:52.556Z,3.10
2018-12-08T09:29:20.185Z,3.00
2018-12-08T09:31:47.879Z,2.90
2018-12-08T09:34:15.336Z,2.90
2018-12-08T09:36:42.974Z,2.90
2018-12-08T09:39:10.400Z,2.90
2018-12-08T09:41:37.950Z,3.00
2018-12-08T09:44:05.451Z,3.10
2018-12-08T09:46:32.962Z,3.10
2018-12-08T09:49:00.458Z,3.10
2018-12-08T09:51:27.945Z,3.00
2018-12-08T09:53:55.414Z,3.00
2018-12-08T09:56:22.910Z,3.00
2018-12-08T09:58:50.731Z,3.00
2018-12-08T10:01:18.234Z,2.90
2018-12-08T10:03:45.758Z,3.00
2018-12-08T10:06:13.241Z,3.00
2018-12-08T10:08:40.697Z,3.00
2018-12-08T10:11:08.166Z,3.00
2018-12-08T10:13:35.640Z,3.10
2018-12-08T10:16:03.111Z,3.10
2018-12-08T10:18:30.648Z,3.10
2018-12-08T10:20:58.155Z,3.20
2018-12-08T10:23:25.605Z,3.20
2018-12-08T10:25:53.094Z,3.30
2018-12-08T10:28:20.573Z,3.40
2018-12-08T10:30:48.072Z,3.50
2018-12-08T10:33:15.564Z,3.50
2018-12-08T10:35:43.031Z,3.40
2018-12-08T10:38:10.520Z,3.40
2018-12-08T10:40:38.026Z,3.50
2018-12-08T10:43:05.499Z,3.50
2018-12-08T10:45:32.974Z,3.50
2018-12-08T10:48:00.451Z,3.50
2018-12-08T10:50:27.903Z,3.50
2018-12-08T10:52:55.380Z,3.50
2018-12-08T10:55:22.855Z,3.40
2018-12-08T10:57:50.316Z,3.40
2018-12-08T11:00:23.304Z,3.30
2018-12-08T11:02:52.308Z,3.30
2018-12-08T11:05:19.844Z,3.30
2018-12-08T11:07:47.301Z,3.30
2018-12-08T11:10:14.814Z,3.20
2018-12-08T11:12:42.284Z,3.20
2018-12-08T11:15:09.788Z,3.10
2018-12-08T11:17:37.279Z,3.10
2018-12-08T11:20:05.206Z,3.00
2018-12-08T11:22:32.686Z,3.00
2018-12-08T11:25:00.132Z,3.00
2018-12-08T11:27:27.629Z,3.00
2018-12-08T11:29:55.146Z,3.00
2018-12-08T11:32:22.636Z,3.10
2018-12-08T11:34:50.080Z,3.10
2018-12-08T11:37:17.544Z,3.10
2018-12-08T11:39:45.049Z,3.10
2018-12-08T11:42:12.538Z,3.20
2018-12-08T11:44:40.188Z,3.20
2018-12-08T11:47:07.701Z,3.20
2018-12-08T11:49:35.208Z,3.30
2018-12-08T11:52:02.714Z,3.30
2018-12-08T11:54:30.156Z,3.40
2018-12-08T11:56:57.671Z,3.50
2018-12-08T11:59:25.129Z,3.50
2018-12-08T12:01:52.602Z,3.50
2018-12-08T12:04:20.104Z,3.50
2018-12-08T12:06:47.600Z,3.50
2018-12-08T12:09:15.080Z,3.50
2018-12-08T12:11:42.603Z,3.50
2018-12-08T12:14:10.098Z,3.50
2018-12-08T12:16:37.646Z,3.50
2018-12-08T12:19:05.193Z,3.50
2018-12-08T12:21:32.688Z,3.50
2018-12-08T12:24:00.406Z,3.40
2018-12-08T12:26:27.871Z,3.50
2018-12-08T12:28:55.337Z,3.50
2018-12-08T12:31:22.786Z,3.60
2018-12-08T12:33:50.364Z,3.60
2018-12-08T12:36:17.856Z,3.60
2018-12-08T12:38:45.340Z,3.70
2018-12-08T12:41:12.819Z,3.80
2018-12-08T12:43:40.318Z,3.80
2018-12-08T12:46:07.820Z,3.80
2018-12-08T12:48:35.306Z,3.90
2018-12-08T12:51:02.832Z,3.90
2018-12-08T12:53:30.324Z,3.90
2018-12-08T12:55:57.820Z,4.00
2018-12-08T12:58:25.296Z,4.00
2018-12-08T13:00:52.860Z,4.00
2018-12-08T13:03:20.313Z,4.00
2018-12-08T13:05:47.825Z,4.10
2018-12-08T13:08:15.515Z,4.10
2018-12-08T13:10:43.075Z,4.10
2018-12-08T13:13:10.606Z,4.10
2018-12-08T13:15:38.103Z,4.20
2018-12-08T13:18:05.616Z,4.10
2018-12-08T13:20:33.089Z,4.20
2018-12-08T13:23:00.549Z,4.20
2018-12-08T13:25:28.149Z,4.20
2018-12-08T13:27:55.656Z,4.30
2018-12-08T13:30:23.136Z,4.20
2018-12-08T13:32:50.620Z,4.30
2018-12-08T13:38:30.649Z,4.20
2018-12-08T13:40:58.363Z,4.20
2018-12-08T13:43:26.751Z,4.20
2018-12-08T13:45:54.237Z,4.30
2018-12-08T13:48:21.948Z,4.30
2018-12-08T13:50:49.813Z,4.40
2018-12-08T13:53:17.321Z,4.40
2018-12-08T13:55:44.858Z,4.40
2018-12-08T13:58:12.358Z,4.40
2018-12-08T14:00:39.838Z,4.40
2018-12-08T14:03:07.387Z,4.40
2018-12-08T14:05:34.875Z,4.40
2018-12-08T14:08:02.428Z,4.40
2018-12-08T14:10:29.922Z,4.40
2018-12-08T14:12:57.398Z,4.40
2018-12-08T14:15:25.831Z,4.50
2018-12-08T14:17:53.340Z,4.40
2018-12-08T14:20:22.903Z,4.40
2018-12-08T14:22:51.319Z,4.40
2018-12-08T14:25:18.840Z,4.40
2018-12-08T14:27:46.579Z,4.40
2018-12-08T14:30:14.098Z,4.30
2018-12-08T14:32:41.627Z,4.30
2018-12-08T14:35:09.249Z,4.30
2018-12-08T14:37:36.853Z,4.30
2018-12-08T14:40:05.987Z,4.30
2018-12-08T14:42:33.513Z,4.20
2018-12-08T14:45:01.020Z,4.20
2018-12-08T14:47:28.603Z,4.20
2018-12-08T14:49:56.082Z,4.20
2018-12-08T14:52:23.562Z,4.20
2018-12-08T14:54:51.923Z,4.20
2018-12-08T14:57:19.431Z,4.20
2018-12-08T14:59:47.862Z,4.10
2018-12-08T15:02:17.302Z,4.00
2018-12-08T15:04:44.794Z,3.80
2018-12-08T15:07:12.308Z,3.70
2018-12-08T15:09:39.821Z,3.50
2018-12-08T15:12:07.338Z,3.40
2018-12-08T15:14:34.790Z,3.40
2018-12-08T15:19:36.902Z,3.40
2018-12-08T15:22:04.385Z,3.70
2018-12-08T15:24:31.874Z,3.90
2018-12-08T15:26:59.341Z,3.90
2018-12-08T15:29:26.818Z,4.00
2018-12-08T15:31:54.433Z,4.10
2018-12-08T15:34:21.903Z,4.10
2018-12-08T15:36:49.420Z,4.10
2018-12-08T15:39:16.908Z,4.20
2018-12-08T15:41:44.401Z,4.20
2018-12-08T15:44:11.895Z,4.30
2018-12-08T15:46:39.383Z,4.30
2018-12-08T15:49:06.881Z,4.30
2018-12-08T15:51:34.464Z,4.30
2018-12-08T15:54:01.959Z,4.30
2018-12-08T15:56:29.422Z,4.30
2018-12-08T15:58:57.317Z,4.30
2018-12-08T16:01:24.763Z,4.30
2018-12-08T16:03:52.349Z,4.40
2018-12-08T16:06:19.800Z,4.40
2018-12-08T16:08:47.263Z,4.40
2018-12-08T16:11:14.726Z,4.30
2018-12-08T16:13:42.227Z,4.30
2018-12-08T16:16:09.785Z,4.30
2018-12-08T16:18:37.312Z,4.30
2018-12-08T16:21:04.765Z,4.30
2018-12-08T16:23:32.264Z,4.30
2018-12-08T16:25:59.729Z,4.30
2018-12-08T16:28:27.244Z,4.40
2018-12-08T16:30:54.723Z,4.40
2018-12-08T16:33:22.482Z,4.30
2018-12-08T16:35:49.967Z,4.30
2018-12-08T16:38:17.472Z,4.30
2018-12-08T16:40:44.944Z,4.30
2018-12-08T16:43:12.452Z,4.30
2018-12-08T16:45:39.968Z,4.30
2018-12-08T16:48:07.477Z,4.40
2018-12-08T16:50:35.912Z,4.30
2018-12-08T16:53:03.399Z,4.30
2018-12-08T16:55:30.913Z,4.30
2018-12-08T16:57:58.370Z,4.30
2018-12-08T17:00:25.837Z,4.30
2018-12-08T17:02:53.309Z,4.30
2018-12-08T17:05:20.881Z,4.40
2018-12-08T17:07:48.517Z,4.40
2018-12-08T17:10:16.002Z,4.40
2018-12-08T17:12:43.589Z,4.40
2018-12-08T17:15:11.079Z,4.40
2018-12-08T17:17:38.535Z,4.40
2018-12-08T17:20:07.918Z,4.40
2018-12-08T17:22:35.403Z,4.40
2018-12-08T17:25:02.926Z,4.30
2018-12-08T17:27:30.358Z,4.40
2018-12-08T17:29:57.855Z,4.40
2018-12-08T17:32:25.321Z,4.40
2018-12-08T17:34:52.812Z,4.50
2018-12-08T17:37:20.269Z,4.50
2018-12-08T17:39:47.725Z,4.60
2018-12-08T17:42:15.194Z,4.60
2018-12-08T17:44:43.585Z,4.60
2018-12-08T17:47:11.059Z,4.60
2018-12-08T17:49:38.578Z,4.60
2018-12-08T17:52:06.050Z,4.60
2018-12-08T17:54:33.519Z,4.60
2018-12-08T17:57:00.974Z,4.60
2018-12-08T17:59:28.442Z,4.60
2018-12-08T18:01:55.914Z,4.70
2018-12-08T18:04:23.397Z,4.80
2018-12-08T18:06:50.992Z,4.80
2018-12-08T18:09:18.496Z,4.90
2018-12-08T18:11:45.962Z,4.90
2018-12-08T18:14:13.421Z,4.90
2018-12-08T18:16:40.893Z,4.80
2018-12-08T18:19:08.395Z,4.80
2018-12-08T18:21:35.876Z,4.80
2018-12-08T18:24:03.453Z,4.70
2018-12-08T18:26:30.921Z,4.70
2018-12-08T18:28:59.230Z,4.70
2018-12-08T18:31:26.869Z,4.60
2018-12-08T18:33:54.354Z,4.60
2018-12-08T18:36:21.846Z,4.60
2018-12-08T18:38:49.347Z,4.60
2018-12-08T18:41:16.854Z,4.60
2018-12-08T18:43:44.354Z,4.60
2018-12-08T18:46:11.817Z,4.60
2018-12-08T18:48:39.293Z,4.60
2018-12-08T18:51:06.777Z,4.60
2018-12-08T18:53:34.246Z,4.70
2018-12-08T18:56:01.729Z,4.70
2018-12-08T18:58:29.161Z,4.70
2018-12-08T19:00:56.669Z,4.70
2018-12-08T19:03:24.115Z,4.70
2018-12-08T19:05:51.607Z,4.70
2018-12-08T19:08:19.049Z,4.80
2018-12-08T19:10:46.558Z,4.80
2018-12-08T19:13:14.047Z,4.80
2018-12-08T19:15:41.521Z,4.90
2018-12-08T19:18:09.006Z,4.90
2018-12-08T19:20:36.773Z,4.90
2018-12-08T19:23:04.268Z,4.90
2018-12-08T19:25:31.763Z,5.00
2018-12-08T19:27:59.262Z,5.00
2018-12-08T19:30:26.762Z,5.00
2018-12-08T19:32:54.223Z,5.00
2018-12-08T19:35:21.733Z,5.10
2018-12-08T19:37:49.317Z,5.10
2018-12-08T19:40:16.811Z,5.20
2018-12-08T19:42:44.293Z,5.20
2018-12-08T19:45:11.782Z,5.20
2018-12-08T19:47:39.257Z,5.20
2018-12-08T19:50:06.962Z,5.20
2018-12-08T19:52:34.434Z,5.30
2018-12-08T19:55:01.912Z,5.30
2018-12-08T19:57:29.381Z,5.30
2018-12-08T19:59:56.872Z,5.30
2018-12-08T20:02:24.325Z,5.30
2018-12-08T20:04:51.799Z,5.30
2018-12-08T20:07:20.365Z,5.30
2018-12-08T20:09:47.833Z,5.30
2018-12-08T20:12:15.292Z,5.30
2018-12-08T20:14:42.758Z,5.30
2018-12-08T20:17:10.209Z,5.30
2018-12-08T20:19:37.698Z,5.20
2018-12-08T20:22:05.171Z,5.30
2018-12-08T20:24:32.625Z,5.30
2018-12-08T20:27:00.076Z,5.30
2018-12-08T20:29:27.533Z,5.20
2018-12-08T20:31:54.980Z,5.20
2018-12-08T20:34:22.422Z,5.10
2018-12-08T20:36:49.872Z,5.10
2018-12-08T20:39:17.313Z,5.10
2018-12-08T20:41:44.766Z,5.10
2018-12-08T20:44:12.226Z,5.10
2018-12-08T20:46:39.717Z,5.10
2018-12-08T20:49:07.177Z,5.20
2018-12-08T20:51:34.627Z,5.20
2018-12-08T20:54:02.096Z,5.20
2018-12-08T20:56:29.554Z,5.30
2018-12-08T20:58:56.992Z,5.30
2018-12-08T21:01:24.469Z,5.30
2018-12-08T21:03:51.941Z,5.30
2018-12-08T21:06:19.434Z,5.30
2018-12-08T21:08:46.963Z,5.30
2018-12-08T21:11:14.446Z,5.30
2018-12-08T21:13:41.887Z,5.30
2018-12-08T21:16:09.385Z,5.30
2018-12-08T21:18:36.850Z,5.30
2018-12-08T21:21:04.314Z,5.30
2018-12-08T21:23:31.798Z,5.40
2018-12-08T21:25:59.281Z,5.40
2018-12-08T21:28:26.799Z,5.40
2018-12-08T21:30:54.268Z,5.40
2018-12-08T21:33:21.752Z,5.40
2018-12-08T21:35:49.206Z,5.40
2018-12-08T21:38:16.766Z,5.40
2018-12-08T21:40:44.337Z,5.40
2018-12-08T21:43:11.783Z,5.30
2018-12-08T21:45:39.272Z,5.30
2018-12-08T21:48:06.753Z,5.30
2018-12-08T21:50:34.201Z,5.30
2018-12-08T21:53:01.905Z,5.20
2018-12-08T21:55:29.354Z,5.20
2018-12-08T21:57:56.838Z,5.20
2018-12-08T22:00:24.487Z,5.20
2018-12-08T22:02:51.978Z,5.30
2018-12-08T22:05:19.441Z,5.30
2018-12-08T22:07:46.894Z,5.40
2018-12-08T22:10:14.567Z,5.50
2018-12-08T22:12:42.117Z,5.60
2018-12-08T22:15:15.799Z,5.70
2018-12-08T22:17:43.808Z,5.80
2018-12-08T22:20:11.272Z,5.90
2018-12-08T22:22:38.724Z,5.90
2018-12-08T22:25:06.201Z,5.90
2018-12-08T22:27:33.702Z,6.00
2018-12-08T22:30:01.156Z,6.10
2018-12-08T22:32:28.618Z,6.10
2018-12-08T22:34:56.111Z,6.20
2018-12-08T22:37:23.589Z,6.20
2018-12-08T22:39:51.037Z,6.20
2018-12-08T22:42:22.226Z,6.20
2018-12-08T22:44:49.700Z,6.20
2018-12-08T22:47:17.210Z,6.20
2018-12-08T22:49:44.698Z,6.10
2018-12-08T22:52:12.193Z,6.20
2018-12-08T22:54:39.660Z,6.10
2018-12-08T22:57:07.183Z,6.10
2018-12-08T22:59:34.675Z,6.10
2018-12-08T23:02:02.184Z,6.10
2018-12-08T23:04:29.679Z,6.20
2018-12-08T23:07:00.228Z,6.10
2018-12-08T23:09:27.706Z,6.10
2018-12-08T23:11:55.234Z,6.20
2018-12-08T23:14:22.700Z,6.20
2018-12-08T23:16:50.206Z,6.20
2018-12-08T23:19:17.768Z,6.20
2018-12-08T23:21:45.242Z,6.10
2018-12-08T23:24:12.726Z,6.10
2018-12-08T23:26:40.212Z,6.00
2018-12-08T23:29:07.698Z,5.90
2018-12-08T23:31:35.198Z,5.80
2018-12-08T23:34:02.669Z,5.80
2018-12-08T23:36:30.123Z,5.80
2018-12-08T23:38:57.582Z,5.80
2018-12-08T23:41:25.033Z,5.80
2018-12-08T23:43:52.501Z,5.80
2018-12-08T23:46:19.995Z,5.90
2018-12-08T23:48:47.482Z,5.90
2018-12-08T23:51:15.823Z,5.80
2018-12-08T23:53:43.295Z,5.80
2018-12-08T23:56:10.791Z,5.90
2018-12-08T23:58:38.267Z,5.90
